sensor_id;sensor_type;location;lat;lon;timestamp;P1;durP1;ratioP1;P2;durP2;ratioP2
68886;SDS011;55925;51.764;6.402;2023-07-08T00:00:11;4.85;;;2.10;;
68886;SDS011;55925;51.764;6.402;2023-07-08T00:02:37;5.45;;;2.58;;
68886;SDS011;55925;51.764;6.402;2023-07-08T00:05:03;5.95;;;2.55;;
68886;SDS011;55925;51.764;6.402;2023-07-08T00:07:29;4.35;;;2.22;;
68886;SDS011;55925;51.764;6.402;2023-07-08T00:09:55;5.05;;;2.38;;
68886;SDS011;55925;51.764;6.402;2023-07-08T00:12:21;4.75;;;2.15;;
68886;SDS011;55925;51.764;6.402;2023-07-08T00:14:47;5.85;;;2.75;;
68886;SDS011;55925;51.764;6.402;2023-07-08T00:17:13;5.63;;;2.47;;
68886;SDS011;55925;51.764;6.402;2023-07-08T00:19:39;5.35;;;2.50;;
68886;SDS011;55925;51.764;6.402;2023-07-08T00:22:10;4.90;;;2.45;;
68886;SDS011;55925;51.764;6.402;2023-07-08T00:24:38;4.72;;;2.72;;
68886;SDS011;55925;51.764;6.402;2023-07-08T00:27:04;5.47;;;2.80;;
68886;SDS011;55925;51.764;6.402;2023-07-08T00:29:30;5.25;;;2.38;;
68886;SDS011;55925;51.764;6.402;2023-07-08T00:31:56;4.93;;;2.28;;
68886;SDS011;55925;51.764;6.402;2023-07-08T00:34:22;5.85;;;2.50;;
68886;SDS011;55925;51.764;6.402;2023-07-08T00:36:48;4.32;;;2.40;;
68886;SDS011;55925;51.764;6.402;2023-07-08T00:39:14;5.45;;;2.63;;
68886;SDS011;55925;51.764;6.402;2023-07-08T00:41:40;4.82;;;2.22;;
68886;SDS011;55925;51.764;6.402;2023-07-08T00:44:07;5.47;;;2.45;;
68886;SDS011;55925;51.764;6.402;2023-07-08T00:46:37;6.40;;;2.40;;
68886;SDS011;55925;51.764;6.402;2023-07-08T00:51:35;4.95;;;2.40;;
68886;SDS011;55925;51.764;6.402;2023-07-08T00:54:15;6.25;;;2.90;;
68886;SDS011;55925;51.764;6.402;2023-07-08T01:01:42;5.88;;;2.60;;
68886;SDS011;55925;51.764;6.402;2023-07-08T01:04:18;6.00;;;2.70;;
68886;SDS011;55925;51.764;6.402;2023-07-08T01:06:47;8.43;;;2.80;;
68886;SDS011;55925;51.764;6.402;2023-07-08T01:09:21;6.30;;;2.53;;
68886;SDS011;55925;51.764;6.402;2023-07-08T01:11:47;5.30;;;2.38;;
68886;SDS011;55925;51.764;6.402;2023-07-08T01:14:14;5.25;;;2.45;;
68886;SDS011;55925;51.764;6.402;2023-07-08T01:16:43;4.68;;;2.38;;
68886;SDS011;55925;51.764;6.402;2023-07-08T01:19:10;5.45;;;2.83;;
68886;SDS011;55925;51.764;6.402;2023-07-08T01:21:39;4.93;;;2.30;;
68886;SDS011;55925;51.764;6.402;2023-07-08T01:24:06;6.57;;;2.45;;
68886;SDS011;55925;51.764;6.402;2023-07-08T01:26:33;4.57;;;2.40;;
68886;SDS011;55925;51.764;6.402;2023-07-08T01:29:00;5.30;;;2.58;;
68886;SDS011;55925;51.764;6.402;2023-07-08T01:31:27;6.20;;;2.40;;
68886;SDS011;55925;51.764;6.402;2023-07-08T01:33:53;4.55;;;2.60;;
68886;SDS011;55925;51.764;6.402;2023-07-08T01:36:19;5.32;;;2.60;;
68886;SDS011;55925;51.764;6.402;2023-07-08T01:38:45;4.82;;;2.35;;
68886;SDS011;55925;51.764;6.402;2023-07-08T01:41:12;5.88;;;2.83;;
68886;SDS011;55925;51.764;6.402;2023-07-08T01:43:39;4.55;;;2.35;;
68886;SDS011;55925;51.764;6.402;2023-07-08T01:46:08;6.80;;;2.72;;
68886;SDS011;55925;51.764;6.402;2023-07-08T01:48:39;4.38;;;2.55;;
68886;SDS011;55925;51.764;6.402;2023-07-08T01:51:06;5.88;;;2.65;;
68886;SDS011;55925;51.764;6.402;2023-07-08T01:53:34;5.70;;;2.50;;
68886;SDS011;55925;51.764;6.402;2023-07-08T01:56:00;5.82;;;2.53;;
68886;SDS011;55925;51.764;6.402;2023-07-08T01:58:26;7.68;;;2.70;;
68886;SDS011;55925;51.764;6.402;2023-07-08T02:00:53;6.93;;;2.70;;
68886;SDS011;55925;51.764;6.402;2023-07-08T02:03:19;7.28;;;2.80;;
68886;SDS011;55925;51.764;6.402;2023-07-08T02:05:45;4.47;;;2.45;;
68886;SDS011;55925;51.764;6.402;2023-07-08T02:08:11;4.60;;;2.42;;
68886;SDS011;55925;51.764;6.402;2023-07-08T02:10:38;4.55;;;2.22;;
68886;SDS011;55925;51.764;6.402;2023-07-08T02:13:04;5.07;;;2.42;;
68886;SDS011;55925;51.764;6.402;2023-07-08T02:15:30;6.50;;;2.50;;
68886;SDS011;55925;51.764;6.402;2023-07-08T02:17:56;5.25;;;2.53;;
68886;SDS011;55925;51.764;6.402;2023-07-08T02:20:22;5.45;;;2.53;;
68886;SDS011;55925;51.764;6.402;2023-07-08T02:22:48;5.78;;;2.90;;
68886;SDS011;55925;51.764;6.402;2023-07-08T02:25:14;6.18;;;2.58;;
68886;SDS011;55925;51.764;6.402;2023-07-08T02:27:41;9.82;;;2.83;;
68886;SDS011;55925;51.764;6.402;2023-07-08T02:30:07;6.28;;;2.63;;
68886;SDS011;55925;51.764;6.402;2023-07-08T02:32:34;5.20;;;2.80;;
68886;SDS011;55925;51.764;6.402;2023-07-08T02:35:01;4.78;;;2.50;;
68886;SDS011;55925;51.764;6.402;2023-07-08T02:37:28;4.80;;;2.45;;
68886;SDS011;55925;51.764;6.402;2023-07-08T02:39:54;6.82;;;2.90;;
68886;SDS011;55925;51.764;6.402;2023-07-08T02:42:20;6.57;;;2.70;;
68886;SDS011;55925;51.764;6.402;2023-07-08T02:44:46;5.28;;;2.35;;
68886;SDS011;55925;51.764;6.402;2023-07-08T02:47:12;5.43;;;2.50;;
68886;SDS011;55925;51.764;6.402;2023-07-08T02:49:38;5.80;;;2.60;;
68886;SDS011;55925;51.764;6.402;2023-07-08T02:52:04;5.32;;;2.53;;
68886;SDS011;55925;51.764;6.402;2023-07-08T02:54:31;4.90;;;2.72;;
68886;SDS011;55925;51.764;6.402;2023-07-08T02:56:56;6.13;;;2.50;;
68886;SDS011;55925;51.764;6.402;2023-07-08T02:59:22;5.70;;;2.67;;
68886;SDS011;55925;51.764;6.402;2023-07-08T03:01:48;6.30;;;2.40;;
68886;SDS011;55925;51.764;6.402;2023-07-08T03:04:15;4.55;;;2.50;;
68886;SDS011;55925;51.764;6.402;2023-07-08T03:06:41;5.10;;;2.72;;
68886;SDS011;55925;51.764;6.402;2023-07-08T03:09:08;5.43;;;2.80;;
68886;SDS011;55925;51.764;6.402;2023-07-08T03:11:34;5.88;;;2.70;;
68886;SDS011;55925;51.764;6.402;2023-07-08T03:14:00;5.55;;;3.42;;
68886;SDS011;55925;51.764;6.402;2023-07-08T03:16:26;6.40;;;3.03;;
68886;SDS011;55925;51.764;6.402;2023-07-08T03:18:52;6.97;;;2.75;;
68886;SDS011;55925;51.764;6.402;2023-07-08T03:21:18;6.78;;;2.45;;
68886;SDS011;55925;51.764;6.402;2023-07-08T03:23:44;5.82;;;2.78;;
68886;SDS011;55925;51.764;6.402;2023-07-08T03:26:18;4.53;;;2.60;;
68886;SDS011;55925;51.764;6.402;2023-07-08T03:28:46;6.90;;;2.85;;
68886;SDS011;55925;51.764;6.402;2023-07-08T03:31:12;6.20;;;2.60;;
68886;SDS011;55925;51.764;6.402;2023-07-08T03:33:38;5.60;;;3.10;;
68886;SDS011;55925;51.764;6.402;2023-07-08T03:36:05;5.72;;;2.85;;
68886;SDS011;55925;51.764;6.402;2023-07-08T03:38:37;5.20;;;2.60;;
68886;SDS011;55925;51.764;6.402;2023-07-08T03:41:03;6.35;;;2.97;;
68886;SDS011;55925;51.764;6.402;2023-07-08T03:43:29;6.15;;;2.60;;
68886;SDS011;55925;51.764;6.402;2023-07-08T03:45:55;6.38;;;2.70;;
68886;SDS011;55925;51.764;6.402;2023-07-08T03:48:21;6.47;;;2.90;;
68886;SDS011;55925;51.764;6.402;2023-07-08T03:50:47;6.85;;;3.45;;
68886;SDS011;55925;51.764;6.402;2023-07-08T03:53:13;5.07;;;2.70;;
68886;SDS011;55925;51.764;6.402;2023-07-08T03:55:39;6.10;;;2.67;;
68886;SDS011;55925;51.764;6.402;2023-07-08T03:58:05;6.10;;;2.67;;
68886;SDS011;55925;51.764;6.402;2023-07-08T04:00:31;5.50;;;2.85;;
68886;SDS011;55925;51.764;6.402;2023-07-08T04:02:57;6.18;;;2.67;;
68886;SDS011;55925;51.764;6.402;2023-07-08T04:05:23;5.20;;;2.53;;
68886;SDS011;55925;51.764;6.402;2023-07-08T04:07:49;4.43;;;2.58;;
68886;SDS011;55925;51.764;6.402;2023-07-08T04:10:15;5.50;;;2.65;;
68886;SDS011;55925;51.764;6.402;2023-07-08T04:12:44;5.07;;;2.65;;
68886;SDS011;55925;51.764;6.402;2023-07-08T04:15:10;5.18;;;2.83;;
68886;SDS011;55925;51.764;6.402;2023-07-08T04:17:47;5.68;;;2.88;;
68886;SDS011;55925;51.764;6.402;2023-07-08T04:20:15;7.80;;;3.00;;
68886;SDS011;55925;51.764;6.402;2023-07-08T04:22:43;5.07;;;2.53;;
68886;SDS011;55925;51.764;6.402;2023-07-08T04:25:10;6.53;;;3.00;;
68886;SDS011;55925;51.764;6.402;2023-07-08T04:27:37;6.03;;;2.67;;
68886;SDS011;55925;51.764;6.402;2023-07-08T04:30:03;5.97;;;2.72;;
68886;SDS011;55925;51.764;6.402;2023-07-08T04:32:29;5.97;;;2.75;;
68886;SDS011;55925;51.764;6.402;2023-07-08T04:34:55;5.55;;;2.67;;
68886;SDS011;55925;51.764;6.402;2023-07-08T04:37:22;7.70;;;2.83;;
68886;SDS011;55925;51.764;6.402;2023-07-08T04:39:47;5.10;;;2.55;;
68886;SDS011;55925;51.764;6.402;2023-07-08T04:42:14;5.32;;;2.80;;
68886;SDS011;55925;51.764;6.402;2023-07-08T04:44:43;5.50;;;2.83;;
68886;SDS011;55925;51.764;6.402;2023-07-08T04:47:09;6.40;;;3.00;;
68886;SDS011;55925;51.764;6.402;2023-07-08T04:49:38;7.10;;;2.90;;
68886;SDS011;55925;51.764;6.402;2023-07-08T04:52:05;8.43;;;2.80;;
68886;SDS011;55925;51.764;6.402;2023-07-08T04:54:31;5.65;;;2.90;;
68886;SDS011;55925;51.764;6.402;2023-07-08T04:56:57;6.97;;;3.03;;
68886;SDS011;55925;51.764;6.402;2023-07-08T04:59:24;7.18;;;2.92;;
68886;SDS011;55925;51.764;6.402;2023-07-08T05:01:51;5.88;;;2.58;;
68886;SDS011;55925;51.764;6.402;2023-07-08T05:04:18;6.43;;;2.63;;
68886;SDS011;55925;51.764;6.402;2023-07-08T05:06:44;6.25;;;2.95;;
68886;SDS011;55925;51.764;6.402;2023-07-08T05:09:11;4.82;;;2.10;;
68886;SDS011;55925;51.764;6.402;2023-07-08T05:11:37;5.25;;;2.65;;
68886;SDS011;55925;51.764;6.402;2023-07-08T05:14:03;5.38;;;2.63;;
68886;SDS011;55925;51.764;6.402;2023-07-08T05:16:29;5.30;;;2.65;;
68886;SDS011;55925;51.764;6.402;2023-07-08T05:18:55;5.95;;;3.10;;
68886;SDS011;55925;51.764;6.402;2023-07-08T05:21:21;5.78;;;3.13;;
68886;SDS011;55925;51.764;6.402;2023-07-08T05:23:47;4.43;;;2.42;;
68886;SDS011;55925;51.764;6.402;2023-07-08T05:26:17;7.05;;;3.13;;
68886;SDS011;55925;51.764;6.402;2023-07-08T05:28:43;4.90;;;2.70;;
68886;SDS011;55925;51.764;6.402;2023-07-08T05:31:09;5.93;;;2.90;;
68886;SDS011;55925;51.764;6.402;2023-07-08T05:33:35;5.43;;;2.85;;
68886;SDS011;55925;51.764;6.402;2023-07-08T05:36:01;6.15;;;3.08;;
68886;SDS011;55925;51.764;6.402;2023-07-08T05:38:27;6.38;;;2.90;;
68886;SDS011;55925;51.764;6.402;2023-07-08T05:40:54;5.18;;;2.83;;
68886;SDS011;55925;51.764;6.402;2023-07-08T05:43:20;6.25;;;2.88;;
68886;SDS011;55925;51.764;6.402;2023-07-08T05:45:46;6.03;;;3.13;;
68886;SDS011;55925;51.764;6.402;2023-07-08T05:48:12;4.93;;;2.65;;
68886;SDS011;55925;51.764;6.402;2023-07-08T05:50:39;6.10;;;2.42;;
68886;SDS011;55925;51.764;6.402;2023-07-08T05:53:05;5.28;;;2.90;;
68886;SDS011;55925;51.764;6.402;2023-07-08T05:55:31;6.65;;;2.70;;
68886;SDS011;55925;51.764;6.402;2023-07-08T05:57:58;12.50;;;3.40;;
68886;SDS011;55925;51.764;6.402;2023-07-08T06:00:24;5.55;;;2.90;;
68886;SDS011;55925;51.764;6.402;2023-07-08T06:02:50;7.28;;;3.30;;
68886;SDS011;55925;51.764;6.402;2023-07-08T06:05:16;9.25;;;2.80;;
68886;SDS011;55925;51.764;6.402;2023-07-08T06:07:42;6.43;;;2.90;;
68886;SDS011;55925;51.764;6.402;2023-07-08T06:10:08;5.90;;;2.92;;
68886;SDS011;55925;51.764;6.402;2023-07-08T06:12:34;7.10;;;2.78;;
68886;SDS011;55925;51.764;6.402;2023-07-08T06:15:00;7.10;;;2.85;;
68886;SDS011;55925;51.764;6.402;2023-07-08T06:17:26;5.68;;;2.75;;
68886;SDS011;55925;51.764;6.402;2023-07-08T06:19:52;5.75;;;2.75;;
68886;SDS011;55925;51.764;6.402;2023-07-08T06:22:18;6.22;;;3.38;;
68886;SDS011;55925;51.764;6.402;2023-07-08T06:24:44;6.47;;;2.72;;
68886;SDS011;55925;51.764;6.402;2023-07-08T06:27:10;5.70;;;2.70;;
68886;SDS011;55925;51.764;6.402;2023-07-08T06:29:36;6.07;;;2.90;;
68886;SDS011;55925;51.764;6.402;2023-07-08T06:32:02;5.50;;;2.65;;
68886;SDS011;55925;51.764;6.402;2023-07-08T06:34:28;6.18;;;2.90;;
68886;SDS011;55925;51.764;6.402;2023-07-08T06:36:54;6.78;;;3.08;;
68886;SDS011;55925;51.764;6.402;2023-07-08T06:39:20;6.95;;;3.05;;
68886;SDS011;55925;51.764;6.402;2023-07-08T06:41:46;5.63;;;2.92;;
68886;SDS011;55925;51.764;6.402;2023-07-08T06:44:12;6.90;;;3.20;;
68886;SDS011;55925;51.764;6.402;2023-07-08T06:46:38;6.90;;;2.80;;
68886;SDS011;55925;51.764;6.402;2023-07-08T06:49:04;6.57;;;3.13;;
68886;SDS011;55925;51.764;6.402;2023-07-08T06:51:33;7.25;;;2.80;;
68886;SDS011;55925;51.764;6.402;2023-07-08T06:54:00;6.15;;;3.08;;
68886;SDS011;55925;51.764;6.402;2023-07-08T06:56:29;5.80;;;3.17;;
68886;SDS011;55925;51.764;6.402;2023-07-08T06:58:55;5.90;;;3.05;;
68886;SDS011;55925;51.764;6.402;2023-07-08T07:01:21;5.78;;;3.42;;
68886;SDS011;55925;51.764;6.402;2023-07-08T07:03:47;5.85;;;2.80;;
68886;SDS011;55925;51.764;6.402;2023-07-08T07:06:13;5.28;;;2.90;;
68886;SDS011;55925;51.764;6.402;2023-07-08T07:08:39;5.85;;;3.20;;
68886;SDS011;55925;51.764;6.402;2023-07-08T07:11:05;6.68;;;3.20;;
68886;SDS011;55925;51.764;6.402;2023-07-08T07:13:31;8.43;;;2.90;;
68886;SDS011;55925;51.764;6.402;2023-07-08T07:15:58;6.47;;;3.15;;
68886;SDS011;55925;51.764;6.402;2023-07-08T07:18:24;4.93;;;3.00;;
68886;SDS011;55925;51.764;6.402;2023-07-08T07:20:52;7.07;;;3.20;;
68886;SDS011;55925;51.764;6.402;2023-07-08T07:23:18;6.75;;;2.72;;
68886;SDS011;55925;51.764;6.402;2023-07-08T07:25:45;6.40;;;3.22;;
68886;SDS011;55925;51.764;6.402;2023-07-08T07:28:12;6.85;;;2.95;;
68886;SDS011;55925;51.764;6.402;2023-07-08T07:30:38;6.28;;;3.10;;
68886;SDS011;55925;51.764;6.402;2023-07-08T07:33:04;7.53;;;2.88;;
68886;SDS011;55925;51.764;6.402;2023-07-08T07:35:30;6.90;;;3.20;;
68886;SDS011;55925;51.764;6.402;2023-07-08T07:37:56;5.10;;;2.90;;
68886;SDS011;55925;51.764;6.402;2023-07-08T07:40:22;7.30;;;3.20;;
68886;SDS011;55925;51.764;6.402;2023-07-08T07:42:48;7.65;;;3.30;;
68886;SDS011;55925;51.764;6.402;2023-07-08T07:45:14;5.80;;;2.67;;
68886;SDS011;55925;51.764;6.402;2023-07-08T07:47:40;7.03;;;3.38;;
68886;SDS011;55925;51.764;6.402;2023-07-08T07:50:07;5.65;;;2.90;;
68886;SDS011;55925;51.764;6.402;2023-07-08T07:52:34;6.72;;;3.35;;
68886;SDS011;55925;51.764;6.402;2023-07-08T07:55:00;5.10;;;3.00;;
68886;SDS011;55925;51.764;6.402;2023-07-08T07:57:26;7.28;;;2.95;;
68886;SDS011;55925;51.764;6.402;2023-07-08T07:59:52;11.50;;;3.35;;
68886;SDS011;55925;51.764;6.402;2023-07-08T08:02:18;7.57;;;3.55;;
68886;SDS011;55925;51.764;6.402;2023-07-08T08:04:44;7.32;;;3.75;;
68886;SDS011;55925;51.764;6.402;2023-07-08T08:07:11;6.50;;;3.38;;
68886;SDS011;55925;51.764;6.402;2023-07-08T08:09:37;9.48;;;3.70;;
68886;SDS011;55925;51.764;6.402;2023-07-08T08:12:03;8.20;;;3.55;;
68886;SDS011;55925;51.764;6.402;2023-07-08T08:14:29;8.35;;;3.80;;
68886;SDS011;55925;51.764;6.402;2023-07-08T08:16:55;6.45;;;3.60;;
68886;SDS011;55925;51.764;6.402;2023-07-08T08:19:21;6.25;;;3.65;;
68886;SDS011;55925;51.764;6.402;2023-07-08T08:21:48;6.93;;;3.65;;
68886;SDS011;55925;51.764;6.402;2023-07-08T08:24:14;7.45;;;3.80;;
68886;SDS011;55925;51.764;6.402;2023-07-08T08:26:40;8.45;;;3.92;;
68886;SDS011;55925;51.764;6.402;2023-07-08T08:29:06;7.22;;;3.95;;
68886;SDS011;55925;51.764;6.402;2023-07-08T08:31:32;6.95;;;3.95;;
68886;SDS011;55925;51.764;6.402;2023-07-08T08:33:58;7.55;;;4.00;;
68886;SDS011;55925;51.764;6.402;2023-07-08T08:36:24;7.50;;;3.90;;
68886;SDS011;55925;51.764;6.402;2023-07-08T08:38:50;8.95;;;4.30;;
68886;SDS011;55925;51.764;6.402;2023-07-08T08:41:17;8.13;;;4.22;;
68886;SDS011;55925;51.764;6.402;2023-07-08T08:43:43;7.55;;;4.00;;
68886;SDS011;55925;51.764;6.402;2023-07-08T08:47:16;9.23;;;4.63;;
68886;SDS011;55925;51.764;6.402;2023-07-08T08:49:27;9.18;;;4.60;;
68886;SDS011;55925;51.764;6.402;2023-07-08T08:51:52;8.90;;;4.40;;
68886;SDS011;55925;51.764;6.402;2023-07-08T08:54:18;7.55;;;4.65;;
68886;SDS011;55925;51.764;6.402;2023-07-08T09:01:45;7.80;;;4.22;;
68886;SDS011;55925;51.764;6.402;2023-07-08T09:04:13;8.20;;;4.40;;
68886;SDS011;55925;51.764;6.402;2023-07-08T09:06:41;8.77;;;4.15;;
68886;SDS011;55925;51.764;6.402;2023-07-08T09:09:22;8.35;;;4.10;;
68886;SDS011;55925;51.764;6.402;2023-07-08T09:12:25;7.90;;;4.50;;
68886;SDS011;55925;51.764;6.402;2023-07-08T09:14:44;9.10;;;4.30;;
68886;SDS011;55925;51.764;6.402;2023-07-08T09:17:25;8.68;;;4.57;;
68886;SDS011;55925;51.764;6.402;2023-07-08T09:23:05;7.47;;;4.38;;
68886;SDS011;55925;51.764;6.402;2023-07-08T09:27:52;9.80;;;4.32;;
68886;SDS011;55925;51.764;6.402;2023-07-08T09:30:19;8.60;;;4.20;;
68886;SDS011;55925;51.764;6.402;2023-07-08T09:32:46;9.63;;;4.60;;
68886;SDS011;55925;51.764;6.402;2023-07-08T09:37:48;7.78;;;4.63;;
68886;SDS011;55925;51.764;6.402;2023-07-08T09:42:44;10.43;;;4.97;;
68886;SDS011;55925;51.764;6.402;2023-07-08T09:45:15;8.35;;;4.57;;
68886;SDS011;55925;51.764;6.402;2023-07-08T09:47:45;8.05;;;4.50;;
68886;SDS011;55925;51.764;6.402;2023-07-08T09:52:47;10.80;;;5.07;;
68886;SDS011;55925;51.764;6.402;2023-07-08T09:55:13;10.23;;;4.57;;
68886;SDS011;55925;51.764;6.402;2023-07-08T09:57:39;8.38;;;4.82;;
68886;SDS011;55925;51.764;6.402;2023-07-08T10:00:12;8.50;;;4.78;;
68886;SDS011;55925;51.764;6.402;2023-07-08T10:07:54;9.05;;;4.97;;
68886;SDS011;55925;51.764;6.402;2023-07-08T10:10:26;10.55;;;4.78;;
68886;SDS011;55925;51.764;6.402;2023-07-08T10:13:04;10.90;;;5.18;;
68886;SDS011;55925;51.764;6.402;2023-07-08T10:15:35;9.35;;;4.55;;
68886;SDS011;55925;51.764;6.402;2023-07-08T10:18:03;10.10;;;5.40;;
68886;SDS011;55925;51.764;6.402;2023-07-08T10:20:37;9.95;;;4.85;;
68886;SDS011;55925;51.764;6.402;2023-07-08T10:23:08;12.43;;;5.30;;
68886;SDS011;55925;51.764;6.402;2023-07-08T10:28:44;42.55;;;8.15;;
68886;SDS011;55925;51.764;6.402;2023-07-08T10:31:16;14.63;;;5.82;;
68886;SDS011;55925;51.764;6.402;2023-07-08T10:36:24;9.55;;;4.95;;
68886;SDS011;55925;51.764;6.402;2023-07-08T10:41:28;10.38;;;5.15;;
68886;SDS011;55925;51.764;6.402;2023-07-08T10:44:02;11.65;;;5.28;;
68886;SDS011;55925;51.764;6.402;2023-07-08T10:46:37;17.73;;;5.63;;
68886;SDS011;55925;51.764;6.402;2023-07-08T10:56:33;10.95;;;5.70;;
68886;SDS011;55925;51.764;6.402;2023-07-08T11:04:23;12.15;;;6.53;;
68886;SDS011;55925;51.764;6.402;2023-07-08T11:09:26;10.40;;;5.63;;
68886;SDS011;55925;51.764;6.402;2023-07-08T11:12:00;12.93;;;5.82;;
68886;SDS011;55925;51.764;6.402;2023-07-08T11:14:37;11.15;;;5.53;;
68886;SDS011;55925;51.764;6.402;2023-07-08T11:17:14;10.23;;;5.57;;
68886;SDS011;55925;51.764;6.402;2023-07-08T11:19:48;8.43;;;4.95;;
68886;SDS011;55925;51.764;6.402;2023-07-08T11:22:16;10.23;;;4.70;;
68886;SDS011;55925;51.764;6.402;2023-07-08T11:24:47;9.48;;;5.18;;
68886;SDS011;55925;51.764;6.402;2023-07-08T11:29:50;8.80;;;4.63;;
68886;SDS011;55925;51.764;6.402;2023-07-08T11:32:17;10.52;;;5.05;;
68886;SDS011;55925;51.764;6.402;2023-07-08T11:34:46;9.68;;;5.15;;
68886;SDS011;55925;51.764;6.402;2023-07-08T11:37:13;9.32;;;4.78;;
68886;SDS011;55925;51.764;6.402;2023-07-08T11:39:43;10.30;;;4.70;;
68886;SDS011;55925;51.764;6.402;2023-07-08T11:42:19;8.52;;;4.50;;
68886;SDS011;55925;51.764;6.402;2023-07-08T11:44:54;8.95;;;4.15;;
68886;SDS011;55925;51.764;6.402;2023-07-08T11:52:52;10.43;;;4.85;;
68886;SDS011;55925;51.764;6.402;2023-07-08T11:57:45;8.27;;;4.47;;
68886;SDS011;55925;51.764;6.402;2023-07-08T12:02:50;8.00;;;4.47;;
68886;SDS011;55925;51.764;6.402;2023-07-08T12:05:17;9.88;;;4.75;;
68886;SDS011;55925;51.764;6.402;2023-07-08T12:07:47;7.80;;;4.43;;
68886;SDS011;55925;51.764;6.402;2023-07-08T12:10:16;8.98;;;4.53;;
68886;SDS011;55925;51.764;6.402;2023-07-08T12:12:43;10.10;;;4.97;;
68886;SDS011;55925;51.764;6.402;2023-07-08T12:17:38;10.60;;;5.00;;
68886;SDS011;55925;51.764;6.402;2023-07-08T12:20:17;8.50;;;4.57;;
68886;SDS011;55925;51.764;6.402;2023-07-08T12:22:44;8.60;;;5.28;;
68886;SDS011;55925;51.764;6.402;2023-07-08T12:25:14;17.02;;;5.55;;
68886;SDS011;55925;51.764;6.402;2023-07-08T12:27:41;9.38;;;4.47;;
68886;SDS011;55925;51.764;6.402;2023-07-08T12:30:08;5.47;;;2.92;;
68886;SDS011;55925;51.764;6.402;2023-07-08T12:32:35;13.65;;;4.22;;
68886;SDS011;55925;51.764;6.402;2023-07-08T12:35:01;8.75;;;4.30;;
68886;SDS011;55925;51.764;6.402;2023-07-08T12:37:29;9.00;;;4.38;;
68886;SDS011;55925;51.764;6.402;2023-07-08T12:39:56;7.68;;;4.20;;
68886;SDS011;55925;51.764;6.402;2023-07-08T12:42:30;9.27;;;4.13;;
68886;SDS011;55925;51.764;6.402;2023-07-08T12:44:56;8.05;;;4.28;;
68886;SDS011;55925;51.764;6.402;2023-07-08T12:47:22;8.07;;;5.18;;
68886;SDS011;55925;51.764;6.402;2023-07-08T12:49:48;9.10;;;3.83;;
68886;SDS011;55925;51.764;6.402;2023-07-08T12:52:21;7.72;;;4.18;;
68886;SDS011;55925;51.764;6.402;2023-07-08T12:54:48;9.55;;;3.58;;
68886;SDS011;55925;51.764;6.402;2023-07-08T12:57:14;8.18;;;3.03;;
68886;SDS011;55925;51.764;6.402;2023-07-08T12:59:41;7.32;;;3.47;;
68886;SDS011;55925;51.764;6.402;2023-07-08T13:02:25;6.90;;;3.35;;
68886;SDS011;55925;51.764;6.402;2023-07-08T13:04:56;7.97;;;3.50;;
68886;SDS011;55925;51.764;6.402;2023-07-08T13:09:49;9.63;;;3.60;;
68886;SDS011;55925;51.764;6.402;2023-07-08T13:12:16;6.72;;;3.38;;
68886;SDS011;55925;51.764;6.402;2023-07-08T13:14:45;8.85;;;3.38;;
68886;SDS011;55925;51.764;6.402;2023-07-08T13:17:14;7.32;;;3.78;;
68886;SDS011;55925;51.764;6.402;2023-07-08T13:19:40;8.00;;;3.60;;
68886;SDS011;55925;51.764;6.402;2023-07-08T13:22:09;10.80;;;4.13;;
68886;SDS011;55925;51.764;6.402;2023-07-08T13:24:41;8.63;;;3.40;;
68886;SDS011;55925;51.764;6.402;2023-07-08T13:27:08;6.25;;;3.42;;
68886;SDS011;55925;51.764;6.402;2023-07-08T13:29:35;10.93;;;3.88;;
68886;SDS011;55925;51.764;6.402;2023-07-08T13:32:04;10.07;;;4.00;;
68886;SDS011;55925;51.764;6.402;2023-07-08T13:34:30;9.43;;;3.30;;
68886;SDS011;55925;51.764;6.402;2023-07-08T13:36:57;8.18;;;3.60;;
68886;SDS011;55925;51.764;6.402;2023-07-08T13:41:53;12.13;;;3.58;;
68886;SDS011;55925;51.764;6.402;2023-07-08T13:44:20;6.78;;;3.28;;
68886;SDS011;55925;51.764;6.402;2023-07-08T13:49:19;6.68;;;3.15;;
68886;SDS011;55925;51.764;6.402;2023-07-08T13:51:45;6.03;;;3.10;;
68886;SDS011;55925;51.764;6.402;2023-07-08T13:54:33;8.05;;;3.35;;
68886;SDS011;55925;51.764;6.402;2023-07-08T13:57:00;7.35;;;3.78;;
68886;SDS011;55925;51.764;6.402;2023-07-08T13:59:26;8.40;;;3.25;;
68886;SDS011;55925;51.764;6.402;2023-07-08T14:01:53;5.35;;;2.78;;
68886;SDS011;55925;51.764;6.402;2023-07-08T14:04:21;7.43;;;3.22;;
68886;SDS011;55925;51.764;6.402;2023-07-08T14:06:48;7.32;;;3.30;;
68886;SDS011;55925;51.764;6.402;2023-07-08T14:09:18;6.28;;;3.10;;
68886;SDS011;55925;51.764;6.402;2023-07-08T14:11:45;8.02;;;3.40;;
68886;SDS011;55925;51.764;6.402;2023-07-08T14:14:11;7.00;;;3.10;;
68886;SDS011;55925;51.764;6.402;2023-07-08T14:16:41;6.32;;;3.10;;
68886;SDS011;55925;51.764;6.402;2023-07-08T14:21:34;8.93;;;3.30;;
68886;SDS011;55925;51.764;6.402;2023-07-08T14:24:00;7.85;;;3.53;;
68886;SDS011;55925;51.764;6.402;2023-07-08T14:26:28;7.88;;;3.03;;
68886;SDS011;55925;51.764;6.402;2023-07-08T14:28:54;6.68;;;3.38;;
68886;SDS011;55925;51.764;6.402;2023-07-08T14:31:21;6.80;;;3.20;;
68886;SDS011;55925;51.764;6.402;2023-07-08T14:33:47;7.13;;;3.03;;
68886;SDS011;55925;51.764;6.402;2023-07-08T14:36:13;7.28;;;3.20;;
68886;SDS011;55925;51.764;6.402;2023-07-08T14:38:40;6.13;;;3.00;;
68886;SDS011;55925;51.764;6.402;2023-07-08T14:41:06;6.60;;;3.17;;
68886;SDS011;55925;51.764;6.402;2023-07-08T14:43:32;10.40;;;3.22;;
68886;SDS011;55925;51.764;6.402;2023-07-08T14:46:00;9.68;;;3.92;;
68886;SDS011;55925;51.764;6.402;2023-07-08T14:48:30;6.20;;;2.80;;
68886;SDS011;55925;51.764;6.402;2023-07-08T14:50:56;5.95;;;2.85;;
68886;SDS011;55925;51.764;6.402;2023-07-08T14:53:23;5.78;;;2.67;;
68886;SDS011;55925;51.764;6.402;2023-07-08T14:55:50;8.00;;;2.75;;
68886;SDS011;55925;51.764;6.402;2023-07-08T14:58:20;14.88;;;4.03;;
68886;SDS011;55925;51.764;6.402;2023-07-08T15:00:47;8.00;;;3.30;;
68886;SDS011;55925;51.764;6.402;2023-07-08T15:03:13;6.70;;;2.95;;
68886;SDS011;55925;51.764;6.402;2023-07-08T15:05:39;7.47;;;3.10;;
68886;SDS011;55925;51.764;6.402;2023-07-08T15:08:07;6.93;;;2.95;;
68886;SDS011;55925;51.764;6.402;2023-07-08T15:10:33;5.35;;;2.60;;
68886;SDS011;55925;51.764;6.402;2023-07-08T15:13:00;6.38;;;2.80;;
68886;SDS011;55925;51.764;6.402;2023-07-08T15:15:28;6.22;;;2.35;;
68886;SDS011;55925;51.764;6.402;2023-07-08T15:17:55;8.38;;;2.92;;
68886;SDS011;55925;51.764;6.402;2023-07-08T15:20:22;7.15;;;2.72;;
68886;SDS011;55925;51.764;6.402;2023-07-08T15:22:48;13.15;;;3.30;;
68886;SDS011;55925;51.764;6.402;2023-07-08T15:25:15;6.82;;;3.10;;
68886;SDS011;55925;51.764;6.402;2023-07-08T15:27:41;8.27;;;3.22;;
68886;SDS011;55925;51.764;6.402;2023-07-08T15:30:14;13.95;;;3.58;;
68886;SDS011;55925;51.764;6.402;2023-07-08T15:32:40;5.80;;;2.90;;
68886;SDS011;55925;51.764;6.402;2023-07-08T15:35:13;7.28;;;2.88;;
68886;SDS011;55925;51.764;6.402;2023-07-08T15:37:39;7.55;;;3.42;;
68886;SDS011;55925;51.764;6.402;2023-07-08T15:40:05;7.03;;;2.80;;
68886;SDS011;55925;51.764;6.402;2023-07-08T15:42:34;6.75;;;3.38;;
68886;SDS011;55925;51.764;6.402;2023-07-08T15:45:11;5.68;;;2.70;;
68886;SDS011;55925;51.764;6.402;2023-07-08T15:47:37;9.10;;;3.58;;
68886;SDS011;55925;51.764;6.402;2023-07-08T15:50:08;7.22;;;3.58;;
68886;SDS011;55925;51.764;6.402;2023-07-08T15:52:34;8.85;;;3.50;;
68886;SDS011;55925;51.764;6.402;2023-07-08T15:55:00;11.02;;;3.47;;
68886;SDS011;55925;51.764;6.402;2023-07-08T15:57:26;8.80;;;3.70;;
68886;SDS011;55925;51.764;6.402;2023-07-08T15:59:52;7.28;;;3.30;;
68886;SDS011;55925;51.764;6.402;2023-07-08T16:02:25;13.60;;;3.20;;
68886;SDS011;55925;51.764;6.402;2023-07-08T16:04:52;10.98;;;3.63;;
68886;SDS011;55925;51.764;6.402;2023-07-08T16:07:18;7.53;;;3.75;;